Silia — WDG2034 — position and weather

sailwx.info

Track history (hours):
 
Tides and Currents Weather Stations Pressure Air Temp Water Temp Dewpoint Dewpoint Depression Visibility Wind Speed Wind Dir Waves Ship Positions

Silia

Owner: greger pacific marine, napa, CA. More information available from US FCC via Universal Licensing System and Coast Guard Vessel Documentation Center.

Last reported at 2015-Jul-24 15:33 UTC. Time now 2015-Jul-30 20:17 UTC.
Position N 37°59' W 122°25'.

Length 17 m; draft 3 m.

Type: Tug. MMSI: 367511460.

Date/timePositionNaut miles runAvg speedWind from/ knotsBaromVisibWave heightAir tempDewpointWater temp
2015-Jul-24 15:33N 37°59' W 122°25'9 9.3
2015-Jul-24 14:33N 37°50' W 122°23'9 9.0
2015-Jul-24 13:33N 37°41' W 122°22'2 0.1
2015-Jul-23 23:34N 37°43' W 122°21'6 5.6
2015-Jul-23 22:33N 37°47' W 122°16'0 0.1
2015-Jul-23 21:33N 37°47' W 122°16'7 7.0
2015-Jul-23 20:33N 37°49' W 122°25'4 4.3
2015-Jul-23 19:33N 37°46' W 122°22'5 5.0
2015-Jul-23 18:33N 37°41' W 122°22'0 0.0
2015-Jul-23 17:33N 37°41' W 122°22'1 0.8
2015-Jul-23 16:33N 37°40' W 122°23'0 0.1
2015-Jul-23 15:33N 37°40' W 122°23'0 0.0
2015-Jul-23 14:33N 37°40' W 122°23'0 0.1
2015-Jul-23 13:33N 37°40' W 122°23'0 0.0
2015-Jul-23 12:33N 37°40' W 122°23'0 0.0
2015-Jul-23 11:33N 37°40' W 122°23'0 0.0
2015-Jul-23 10:33N 37°40' W 122°23'0 0.0
2015-Jul-23 09:33N 37°40' W 122°23'0 0.0
2015-Jul-23 08:33N 37°40' W 122°23'0 0.0
2015-Jul-23 07:33N 37°40' W 122°23'0 0.0
2015-Jul-23 06:33N 37°40' W 122°23'0 0.0
2015-Jul-23 05:33N 37°40' W 122°23'0 0.0
2015-Jul-23 04:33N 37°40' W 122°23'0 0.0
2015-Jul-23 03:33N 37°40' W 122°23'0 0.0
2015-Jul-23 02:33N 37°40' W 122°23'0 0.0
2015-Jul-23 01:33N 37°40' W 122°23'0 0.4
2015-Jul-23 00:33N 37°40' W 122°22'0 0.4
2015-Jul-22 23:33N 37°40' W 122°23'0 0.1
2015-Jul-22 22:33N 37°40' W 122°23'1 1.0
2015-Jul-22 21:34N 37°41' W 122°22'1 0.9
2015-Jul-22 20:33N 37°40' W 122°23'0 0.1
2015-Jul-22 19:33N 37°40' W 122°23'4 3.7
2015-Jul-22 18:33N 37°44' W 122°21'4 3.6
2015-Jul-22 17:33N 37°40' W 122°22'0 0.0
2015-Jul-22 16:33N 37°40' W 122°22'0 0.3
2015-Jul-22 15:33N 37°40' W 122°22'1 0.7
2015-Jul-22 14:33N 37°40' W 122°23'0 0.0
2015-Jul-21 23:33N 37°40' W 122°23'0 0.1
2015-Jul-21 22:33N 37°40' W 122°23'0 0.2
2015-Jul-21 21:33N 37°40' W 122°23'1 1.2
2015-Jul-21 20:33N 37°41' W 122°22'0 0.1
2015-Jul-21 19:33N 37°41' W 122°22'1 1.2
2015-Jul-21 18:33N 37°40' W 122°23'0 0.0
2015-Jul-21 17:33N 37°40' W 122°23'0 0.1
2015-Jul-21 16:33N 37°40' W 122°23'0 0.1
2015-Jul-21 15:33N 37°40' W 122°23'0 0.1
2015-Jul-21 14:34N 37°40' W 122°23'0 0.1
2015-Jul-21 13:33N 37°40' W 122°23'0 0.0
2015-Jul-21 01:34N 37°40' W 122°23'0 0.0
2015-Jul-21 00:33N 37°40' W 122°23'2 2.1
2015-Jul-20 23:33N 37°42' W 122°21'3 2.6
2015-Jul-20 22:33N 37°45' W 122°22'4 4.1
2015-Jul-20 21:33N 37°41' W 122°22'0 0.4
2015-Jul-20 20:33N 37°40' W 122°22'0 0.4
2015-Jul-20 19:33N 37°40' W 122°23'0 0.0
2015-Jul-20 18:33N 37°40' W 122°23'0 0.0
2015-Jul-20 17:34N 37°40' W 122°23'0 0.1
2015-Jul-20 16:33N 37°40' W 122°23'0 0.1
2015-Jul-20 15:34N 37°40' W 122°23'  
2015-Jul-18 01:33N 37°40' W 122°23'0 0.4
2015-Jul-18 00:34N 37°40' W 122°22'0 0.4
2015-Jul-17 23:33N 37°40' W 122°23'0 0.0
2015-Jul-17 22:33N 37°40' W 122°23'3 2.6
2015-Jul-17 21:33N 37°43' W 122°21'3 2.6
2015-Jul-17 20:33N 37°40' W 122°23'0 0.0
2015-Jul-17 19:34N 37°40' W 122°23'0 0.1
2015-Jul-17 18:33N 37°40' W 122°23'1 0.5
2015-Jul-17 17:33N 37°40' W 122°22'0 0.3
2015-Jul-17 16:33N 37°41' W 122°22'1 0.7
2015-Jul-17 15:33N 37°40' W 122°23'0 0.0
2015-Jul-17 01:34N 37°40' W 122°23'0 0.2
2015-Jul-17 00:33N 37°40' W 122°23'0 0.0
2015-Jul-16 23:33N 37°40' W 122°23'1 0.8
2015-Jul-16 22:33N 37°41' W 122°22'5 5.1
2015-Jul-16 21:33N 37°46' W 122°22'4 3.7
2015-Jul-16 20:33N 37°42' W 122°22'2 1.9
2015-Jul-16 19:33N 37°40' W 122°23'1 0.8
2015-Jul-16 18:33N 37°40' W 122°22'7 6.9
2015-Jul-16 17:33N 37°47' W 122°23'1 1.4
2015-Jul-16 16:33N 37°48' W 122°24'4 3.8
2015-Jul-16 15:33N 37°45' W 122°22'4 4.4
2015-Jul-16 14:33N 37°41' W 122°22'1 0.1
2015-Jul-16 01:08N 37°40' W 122°23'1 1.5
2015-Jul-16 00:33N 37°41' W 122°22'5 4.9
2015-Jul-15 23:33N 37°45' W 122°22'4 4.3
2015-Jul-15 22:34N 37°49' W 122°25'4 3.9
2015-Jul-15 21:34N 37°46' W 122°22'5 4.9
2015-Jul-15 20:33N 37°41' W 122°22'4 4.3
2015-Jul-15 19:34N 37°45' W 122°22'5 4.5
2015-Jul-15 18:33N 37°49' W 122°24'3 3.2
2015-Jul-15 17:34N 37°46' W 122°23'4 3.6
2015-Jul-15 16:33N 37°43' W 122°21'3 2.9
2015-Jul-15 15:33N 37°40' W 122°23'0 0.1
2015-Jul-15 14:33N 37°40' W 122°23'0 0.0
2015-Jul-15 03:03N 37°40' W 122°23'1 1.6
2015-Jul-15 02:34N 37°41' W 122°22'6 6.5
2015-Jul-15 01:33N 37°47' W 122°23'1 1.3
2015-Jul-15 00:33N 37°48' W 122°23'6 5.9
2015-Jul-14 23:33N 37°43' W 122°21'1 0.5
2015-Jul-14 22:33N 37°43' W 122°21'5 5.0
2015-Jul-14 21:33N 37°48' W 122°23'0 0.2
2015-Jul-14 20:33N 37°48' W 122°23'6 5.6
2015-Jul-14 19:33N 37°43' W 122°21'0 0.2
2015-Jul-14 18:33N 37°43' W 122°21'7 7.3
2015-Jul-14 17:33N 37°49' W 122°25'2 2.5
2015-Jul-14 16:33N 37°48' W 122°23'3 3.2
2015-Jul-14 15:33N 37°45' W 122°22'  
Track history (hours):
 
Tides and Currents Weather Stations Pressure Air Temp Water Temp Dewpoint Dewpoint Depression Visibility Wind Speed Wind Dir Waves Ship Positions

Silia

Owner: greger pacific marine, napa, CA. More information available from US FCC via Universal Licensing System and Coast Guard Vessel Documentation Center.

Last reported at 2015-Jul-24 15:33 UTC. Time now 2015-Jul-30 20:17 UTC.
Position N 37°59' W 122°25'.

Length 17 m; draft 3 m.

Type: Tug. MMSI: 367511460.

Date/timePositionNaut miles runAvg speedWind from/ knotsBaromVisibWave heightAir tempDewpointWater temp
2015-Jul-24 15:33N 37°59' W 122°25'9 9.3
2015-Jul-24 14:33N 37°50' W 122°23'9 9.0
2015-Jul-24 13:33N 37°41' W 122°22'2 0.1
2015-Jul-23 23:34N 37°43' W 122°21'6 5.6
2015-Jul-23 22:33N 37°47' W 122°16'0 0.1
2015-Jul-23 21:33N 37°47' W 122°16'7 7.0
2015-Jul-23 20:33N 37°49' W 122°25'4 4.3
2015-Jul-23 19:33N 37°46' W 122°22'5 5.0
2015-Jul-23 18:33N 37°41' W 122°22'0 0.0
2015-Jul-23 17:33N 37°41' W 122°22'1 0.8
2015-Jul-23 16:33N 37°40' W 122°23'0 0.1
2015-Jul-23 15:33N 37°40' W 122°23'0 0.0
2015-Jul-23 14:33N 37°40' W 122°23'0 0.1
2015-Jul-23 13:33N 37°40' W 122°23'0 0.0
2015-Jul-23 12:33N 37°40' W 122°23'0 0.0
2015-Jul-23 11:33N 37°40' W 122°23'0 0.0
2015-Jul-23 10:33N 37°40' W 122°23'0 0.0
2015-Jul-23 09:33N 37°40' W 122°23'0 0.0
2015-Jul-23 08:33N 37°40' W 122°23'0 0.0
2015-Jul-23 07:33N 37°40' W 122°23'0 0.0
2015-Jul-23 06:33N 37°40' W 122°23'0 0.0
2015-Jul-23 05:33N 37°40' W 122°23'0 0.0
2015-Jul-23 04:33N 37°40' W 122°23'0 0.0
2015-Jul-23 03:33N 37°40' W 122°23'0 0.0
2015-Jul-23 02:33N 37°40' W 122°23'0 0.0
2015-Jul-23 01:33N 37°40' W 122°23'0 0.4
2015-Jul-23 00:33N 37°40' W 122°22'0 0.4
2015-Jul-22 23:33N 37°40' W 122°23'0 0.1
2015-Jul-22 22:33N 37°40' W 122°23'1 1.0
2015-Jul-22 21:34N 37°41' W 122°22'1 0.9
2015-Jul-22 20:33N 37°40' W 122°23'0 0.1
2015-Jul-22 19:33N 37°40' W 122°23'4 3.7
2015-Jul-22 18:33N 37°44' W 122°21'4 3.6
2015-Jul-22 17:33N 37°40' W 122°22'0 0.0
2015-Jul-22 16:33N 37°40' W 122°22'0 0.3
2015-Jul-22 15:33N 37°40' W 122°22'1 0.7
2015-Jul-22 14:33N 37°40' W 122°23'0 0.0
2015-Jul-21 23:33N 37°40' W 122°23'0 0.1
2015-Jul-21 22:33N 37°40' W 122°23'0 0.2
2015-Jul-21 21:33N 37°40' W 122°23'1 1.2
2015-Jul-21 20:33N 37°41' W 122°22'0 0.1
2015-Jul-21 19:33N 37°41' W 122°22'1 1.2
2015-Jul-21 18:33N 37°40' W 122°23'0 0.0
2015-Jul-21 17:33N 37°40' W 122°23'0 0.1
2015-Jul-21 16:33N 37°40' W 122°23'0 0.1
2015-Jul-21 15:33N 37°40' W 122°23'0 0.1
2015-Jul-21 14:34N 37°40' W 122°23'0 0.1
2015-Jul-21 13:33N 37°40' W 122°23'0 0.0
2015-Jul-21 01:34N 37°40' W 122°23'0 0.0
2015-Jul-21 00:33N 37°40' W 122°23'2 2.1
2015-Jul-20 23:33N 37°42' W 122°21'3 2.6
2015-Jul-20 22:33N 37°45' W 122°22'4 4.1
2015-Jul-20 21:33N 37°41' W 122°22'0 0.4
2015-Jul-20 20:33N 37°40' W 122°22'0 0.4
2015-Jul-20 19:33N 37°40' W 122°23'0 0.0
2015-Jul-20 18:33N 37°40' W 122°23'0 0.0
2015-Jul-20 17:34N 37°40' W 122°23'0 0.1
2015-Jul-20 16:33N 37°40' W 122°23'0 0.1
2015-Jul-20 15:34N 37°40' W 122°23'  
2015-Jul-18 01:33N 37°40' W 122°23'0 0.4
2015-Jul-18 00:34N 37°40' W 122°22'0 0.4
2015-Jul-17 23:33N 37°40' W 122°23'0 0.0
2015-Jul-17 22:33N 37°40' W 122°23'3 2.6
2015-Jul-17 21:33N 37°43' W 122°21'3 2.6
2015-Jul-17 20:33N 37°40' W 122°23'0 0.0
2015-Jul-17 19:34N 37°40' W 122°23'0 0.1
2015-Jul-17 18:33N 37°40' W 122°23'1 0.5
2015-Jul-17 17:33N 37°40' W 122°22'0 0.3
2015-Jul-17 16:33N 37°41' W 122°22'1 0.7
2015-Jul-17 15:33N 37°40' W 122°23'0 0.0
2015-Jul-17 01:34N 37°40' W 122°23'0 0.2
2015-Jul-17 00:33N 37°40' W 122°23'0 0.0
2015-Jul-16 23:33N 37°40' W 122°23'1 0.8
2015-Jul-16 22:33N 37°41' W 122°22'5 5.1
2015-Jul-16 21:33N 37°46' W 122°22'4 3.7
2015-Jul-16 20:33N 37°42' W 122°22'2 1.9
2015-Jul-16 19:33N 37°40' W 122°23'1 0.8
2015-Jul-16 18:33N 37°40' W 122°22'7 6.9
2015-Jul-16 17:33N 37°47' W 122°23'1 1.4
2015-Jul-16 16:33N 37°48' W 122°24'4 3.8
2015-Jul-16 15:33N 37°45' W 122°22'4 4.4
2015-Jul-16 14:33N 37°41' W 122°22'1 0.1
2015-Jul-16 01:08N 37°40' W 122°23'1 1.5
2015-Jul-16 00:33N 37°41' W 122°22'5 4.9
2015-Jul-15 23:33N 37°45' W 122°22'4 4.3
2015-Jul-15 22:34N 37°49' W 122°25'4 3.9
2015-Jul-15 21:34N 37°46' W 122°22'5 4.9
2015-Jul-15 20:33N 37°41' W 122°22'4 4.3
2015-Jul-15 19:34N 37°45' W 122°22'5 4.5
2015-Jul-15 18:33N 37°49' W 122°24'3 3.2
2015-Jul-15 17:34N 37°46' W 122°23'4 3.6
2015-Jul-15 16:33N 37°43' W 122°21'3 2.9
2015-Jul-15 15:33N 37°40' W 122°23'0 0.1
2015-Jul-15 14:33N 37°40' W 122°23'0 0.0
2015-Jul-15 03:03N 37°40' W 122°23'1 1.6
2015-Jul-15 02:34N 37°41' W 122°22'6 6.5
2015-Jul-15 01:33N 37°47' W 122°23'1 1.3
2015-Jul-15 00:33N 37°48' W 122°23'6 5.9
2015-Jul-14 23:33N 37°43' W 122°21'1 0.5
2015-Jul-14 22:33N 37°43' W 122°21'5 5.0
2015-Jul-14 21:33N 37°48' W 122°23'0 0.2
2015-Jul-14 20:33N 37°48' W 122°23'6 5.6
2015-Jul-14 19:33N 37°43' W 122°21'0 0.2
2015-Jul-14 18:33N 37°43' W 122°21'7 7.3
2015-Jul-14 17:33N 37°49' W 122°25'2 2.5
2015-Jul-14 16:33N 37°48' W 122°23'3 3.2
2015-Jul-14 15:33N 37°45' W 122°22'  

Dump ship's entire track history